Time;durP1;ratioP1;P1;durP2;ratioP2;P2;SDS_P1;SDS_P2;PMS_P1;PMS_P2;Temp;Humidity;BMP_temperature;BMP_pressure;BME280_temperature;BME280_humidity;BME280_pressure;Samples;Min_cycle;Max_cycle;Signal;HPM_P1;HPM_P2
2021/08/11 00:01:59;;;;;;;0.70;0.70;;;17.30;99.90;;;;;;5035410;28;20478;-80
2021/08/11 00:04:26;;;;;;;0.60;0.50;;;17.30;99.90;;;;;;5035454;28;20998;-80
2021/08/11 00:06:52;;;;;;;0.60;0.60;;;17.30;99.90;;;;;;5035564;28;20458;-80
2021/08/11 00:09:19;;;;;;;0.77;0.70;;;17.30;99.90;;;;;;5035341;28;20938;-79
2021/08/11 00:11:46;;;;;;;0.83;0.43;;;17.30;99.90;;;;;;5035232;28;20462;-80
2021/08/11 00:14:14;;;;;;;1.70;0.97;;;17.30;99.90;;;;;;5035568;28;20439;-79
2021/08/11 00:16:40;;;;;;;0.50;0.50;;;17.30;99.90;;;;;;5035184;28;20449;-79
2021/08/11 00:19:07;;;;;;;1.13;0.83;;;17.30;99.90;;;;;;5035770;28;20439;-80
2021/08/11 00:21:34;;;;;;;2.60;1.10;;;17.20;99.90;;;;;;5035238;28;20482;-80
2021/08/11 00:24:01;;;;;;;1.77;0.60;;;17.20;99.90;;;;;;5035397;28;20450;-80
2021/08/11 00:26:27;;;;;;;0.63;0.63;;;17.20;99.90;;;;;;5035303;28;20450;-79
2021/08/11 00:28:54;;;;;;;2.17;1.00;;;17.20;99.90;;;;;;5035430;28;20451;-79
2021/08/11 00:31:22;;;;;;;0.60;0.60;;;17.20;99.90;;;;;;5034900;28;20450;-80
2021/08/11 00:33:49;;;;;;;0.70;0.60;;;17.10;99.90;;;;;;5035177;28;20447;-79
2021/08/11 00:36:15;;;;;;;0.97;0.97;;;17.10;99.90;;;;;;5034836;28;20961;-80
2021/08/11 00:38:42;;;;;;;0.70;0.70;;;17.10;99.90;;;;;;5034643;28;20466;-79
2021/08/11 00:41:09;;;;;;;0.80;0.70;;;17.00;99.90;;;;;;5034689;28;20993;-80
2021/08/11 00:43:36;;;;;;;1.70;0.70;;;17.00;99.90;;;;;;5034925;28;20478;-80
2021/08/11 00:46:02;;;;;;;0.67;0.67;;;17.00;99.90;;;;;;5034821;28;20447;-80
2021/08/11 00:48:30;;;;;;;0.60;0.50;;;17.00;99.90;;;;;;5034916;28;20453;-80
2021/08/11 00:50:58;;;;;;;1.80;0.97;;;17.00;99.90;;;;;;5035099;28;20467;-80
2021/08/11 00:53:27;;;;;;;0.60;0.40;;;16.90;99.90;;;;;;5034798;28;20480;-80
2021/08/11 00:55:57;;;;;;;0.80;0.80;;;16.90;99.90;;;;;;5034767;28;20497;-79
2021/08/11 00:58:25;;;;;;;0.67;0.60;;;16.90;99.90;;;;;;5035633;28;20497;-80
2021/08/11 01:00:54;;;;;;;0.87;0.60;;;16.90;99.90;;;;;;5034571;28;20450;-80
2021/08/11 01:03:23;;;;;;;0.60;0.50;;;16.90;99.90;;;;;;5034321;28;20497;-80
2021/08/11 01:05:54;;;;;;;0.60;0.60;;;16.90;99.90;;;;;;5033967;28;20435;-80
2021/08/11 01:08:23;;;;;;;0.50;0.50;;;16.80;99.90;;;;;;5034267;28;20443;-79
2021/08/11 01:10:51;;;;;;;2.27;0.93;;;16.80;99.90;;;;;;5034438;28;20794;-80
2021/08/11 01:13:19;;;;;;;2.20;0.83;;;16.70;99.90;;;;;;5034426;28;20458;-80
2021/08/11 01:15:46;;;;;;;0.90;0.67;;;16.70;99.90;;;;;;5034076;28;20939;-80
2021/08/11 01:18:14;;;;;;;0.70;0.70;;;16.70;99.90;;;;;;5034382;28;20512;-79
2021/08/11 01:20:49;;;;;;;1.10;0.77;;;16.70;99.90;;;;;;5033935;28;21012;-80
2021/08/11 01:23:23;;;;;;;1.37;0.80;;;16.70;99.90;;;;;;5034182;28;20470;-80
2021/08/11 01:25:54;;;;;;;0.87;0.67;;;16.70;99.90;;;;;;5034017;28;20423;-80
2021/08/11 01:28:45;;;;;;;0.60;0.50;;;16.70;99.90;;;;;;5033899;28;20907;-80
2021/08/11 01:31:16;;;;;;;2.00;0.90;;;16.60;99.90;;;;;;5034058;28;20477;-79
2021/08/11 01:33:56;;;;;;;0.87;0.63;;;16.60;99.90;;;;;;5034109;28;20449;-80
2021/08/11 01:36:33;;;;;;;0.80;0.60;;;16.60;99.90;;;;;;5034091;28;20416;-80
2021/08/11 01:39:04;;;;;;;0.60;0.60;;;16.70;99.90;;;;;;5033652;28;20486;-80
2021/08/11 01:41:36;;;;;;;5.60;0.77;;;16.70;99.90;;;;;;5033871;28;20473;-80
2021/08/11 01:44:05;;;;;;;1.53;0.70;;;16.70;99.90;;;;;;5033838;28;20466;-79
2021/08/11 01:46:36;;;;;;;1.37;0.80;;;16.60;99.90;;;;;;5033556;28;20438;-80
2021/08/11 01:49:08;;;;;;;1.63;0.70;;;16.60;99.90;;;;;;5033843;28;20440;-79
2021/08/11 01:51:37;;;;;;;0.83;0.67;;;16.50;99.90;;;;;;5033712;28;20493;-79
2021/08/11 01:54:06;;;;;;;1.00;0.87;;;16.60;99.90;;;;;;5033693;28;20453;-80
2021/08/11 01:56:34;;;;;;;0.60;0.60;;;16.50;99.90;;;;;;5033670;28;20454;-80
2021/08/11 01:59:02;;;;;;;1.10;0.87;;;16.60;99.90;;;;;;5033703;28;20447;-80
2021/08/11 02:01:29;;;;;;;1.83;0.90;;;16.50;99.90;;;;;;5033277;28;20450;-80
2021/08/11 02:03:56;;;;;;;0.70;0.70;;;16.50;99.90;;;;;;5033197;28;21032;-79
2021/08/11 02:06:28;;;;;;;0.80;0.67;;;16.50;99.90;;;;;;5033284;28;20798;-80
2021/08/11 02:08:56;;;;;;;0.60;0.60;;;16.50;99.90;;;;;;5033547;28;20419;-80
2021/08/11 02:11:23;;;;;;;1.80;0.70;;;16.40;99.90;;;;;;5033631;28;20501;-80
2021/08/11 02:13:50;;;;;;;1.67;0.60;;;16.50;99.90;;;;;;5034097;28;20802;-80
2021/08/11 02:16:19;;;;;;;1.53;0.60;;;16.40;99.90;;;;;;5033144;28;20801;-80
2021/08/11 02:18:46;;;;;;;0.57;0.50;;;16.40;99.90;;;;;;5034080;28;20778;-80
2021/08/11 02:21:13;;;;;;;1.23;0.83;;;16.40;99.90;;;;;;5033278;28;20466;-80
2021/08/11 02:23:41;;;;;;;0.70;0.50;;;16.40;99.90;;;;;;5033238;28;20491;-80
2021/08/11 02:26:16;;;;;;;1.03;0.70;;;16.40;99.90;;;;;;5033070;28;20435;-80
2021/08/11 02:28:54;;;;;;;0.73;0.60;;;16.30;99.90;;;;;;5033331;28;20438;-80
2021/08/11 02:31:32;;;;;;;1.43;0.47;;;16.30;99.90;;;;;;5032909;28;20977;-80
2021/08/11 02:34:05;;;;;;;2.93;0.80;;;16.40;99.90;;;;;;5032991;28;20906;-80
2021/08/11 02:36:39;;;;;;;1.43;0.90;;;16.30;99.90;;;;;;5032934;28;20431;-80
2021/08/11 02:39:12;;;;;;;0.93;0.50;;;16.30;99.90;;;;;;5032801;28;20469;-80
2021/08/11 02:41:44;;;;;;;0.80;0.70;;;16.30;99.90;;;;;;5033185;28;20462;-83
2021/08/11 02:44:17;;;;;;;2.93;0.90;;;16.30;99.90;;;;;;5033310;28;21042;-84
2021/08/11 02:46:45;;;;;;;0.60;0.50;;;16.30;99.90;;;;;;5033419;28;20415;-84
2021/08/11 02:49:15;;;;;;;0.60;0.50;;;16.30;99.90;;;;;;5033220;28;20791;-84
2021/08/11 02:51:43;;;;;;;1.63;1.10;;;16.30;99.90;;;;;;5033150;28;20479;-84
2021/08/11 02:54:16;;;;;;;1.10;1.10;;;16.30;99.90;;;;;;5033270;28;20500;-84
2021/08/11 02:56:45;;;;;;;0.53;0.53;;;16.20;99.90;;;;;;5033247;28;20439;-83
2021/08/11 02:59:12;;;;;;;1.17;0.70;;;16.20;99.90;;;;;;5033336;28;20443;-86
2021/08/11 03:01:39;;;;;;;0.70;0.70;;;16.20;99.90;;;;;;5033236;28;20498;-85
2021/08/11 03:04:07;;;;;;;0.60;0.60;;;16.20;99.90;;;;;;5033351;28;20482;-85
2021/08/11 03:06:34;;;;;;;0.90;0.60;;;16.20;99.90;;;;;;5033201;28;20453;-85
2021/08/11 03:09:02;;;;;;;0.80;0.67;;;16.20;99.90;;;;;;5033238;28;20451;-85
2021/08/11 03:11:30;;;;;;;1.00;0.70;;;16.20;99.90;;;;;;5033058;28;20466;-85
2021/08/11 03:13:57;;;;;;;1.30;0.77;;;16.10;99.90;;;;;;5033352;28;20445;-85
2021/08/11 03:16:24;;;;;;;1.07;0.63;;;16.10;99.90;;;;;;5032958;28;20452;-85
2021/08/11 03:18:51;;;;;;;0.53;0.40;;;16.10;99.90;;;;;;5033160;28;20844;-85
2021/08/11 03:21:19;;;;;;;2.30;0.67;;;16.10;99.90;;;;;;5033039;28;20470;-85
2021/08/11 03:23:45;;;;;;;2.23;0.67;;;16.10;99.90;;;;;;5032778;28;21008;-85
2021/08/11 03:26:12;;;;;;;0.90;0.90;;;16.00;99.90;;;;;;5032681;28;20438;-86
2021/08/11 03:28:40;;;;;;;0.50;0.50;;;16.00;99.90;;;;;;5035908;28;20451;-85
2021/08/11 03:31:07;;;;;;;1.00;0.70;;;16.00;99.90;;;;;;5036301;28;20469;-85
2021/08/11 03:33:34;;;;;;;0.73;0.60;;;16.00;99.90;;;;;;5036298;28;20965;-85
2021/08/11 03:36:00;;;;;;;1.17;0.67;;;15.90;99.90;;;;;;5036536;28;20453;-85
2021/08/11 03:38:27;;;;;;;0.40;0.40;;;15.90;99.90;;;;;;5036039;28;20478;-85
2021/08/11 03:40:54;;;;;;;1.53;0.70;;;15.90;99.90;;;;;;5036299;28;20451;-85
2021/08/11 03:43:20;;;;;;;0.60;0.60;;;15.90;99.90;;;;;;5036182;28;20482;-85
2021/08/11 03:45:49;;;;;;;0.73;0.50;;;15.90;99.90;;;;;;5036281;28;20439;-85
2021/08/11 03:48:15;;;;;;;0.90;0.50;;;15.90;99.90;;;;;;5036288;28;20454;-85
2021/08/11 03:50:42;;;;;;;1.03;0.73;;;15.90;99.90;;;;;;5035875;28;20443;-85
2021/08/11 03:53:10;;;;;;;1.10;1.00;;;15.90;99.90;;;;;;5035943;28;20434;-85
2021/08/11 03:55:36;;;;;;;0.60;0.60;;;15.90;99.90;;;;;;5035903;28;20443;-85
2021/08/11 03:58:03;;;;;;;1.00;0.73;;;15.90;99.90;;;;;;5036090;28;20453;-85
2021/08/11 04:00:31;;;;;;;0.90;0.67;;;16.00;99.90;;;;;;5036126;28;20434;-85
2021/08/11 04:02:59;;;;;;;1.23;0.90;;;16.00;99.90;;;;;;5035889;28;20487;-85
2021/08/11 04:05:25;;;;;;;0.50;0.50;;;16.00;99.90;;;;;;5035973;28;20442;-85
2021/08/11 04:07:52;;;;;;;0.90;0.53;;;16.00;99.90;;;;;;5035639;28;20439;-85
2021/08/11 04:10:19;;;;;;;1.90;0.87;;;16.00;99.90;;;;;;5035870;28;20458;-85
2021/08/11 04:12:45;;;;;;;2.17;0.90;;;16.00;99.90;;;;;;5035749;28;20970;-85
2021/08/11 04:15:12;;;;;;;1.03;0.60;;;16.00;99.90;;;;;;5035902;28;20454;-84
2021/08/11 04:17:39;;;;;;;4.87;0.87;;;16.00;99.90;;;;;;5035706;28;20446;-85
2021/08/11 04:20:09;;;;;;;1.13;0.70;;;16.00;99.90;;;;;;5035823;28;20446;-84
2021/08/11 04:22:35;;;;;;;1.13;0.60;;;15.90;99.90;;;;;;5035042;28;20993;-80
2021/08/11 04:25:03;;;;;;;2.50;0.90;;;15.90;99.90;;;;;;5035113;28;20949;-80
2021/08/11 04:27:30;;;;;;;0.70;0.70;;;15.90;99.90;;;;;;5035213;28;20457;-80
2021/08/11 04:29:56;;;;;;;3.00;0.80;;;15.90;99.90;;;;;;5035010;28;20446;-79
2021/08/11 04:32:23;;;;;;;0.80;0.80;;;15.80;99.90;;;;;;5034863;28;20978;-80
2021/08/11 04:34:50;;;;;;;1.43;1.10;;;15.80;99.90;;;;;;5035189;28;20450;-79
2021/08/11 04:37:18;;;;;;;1.23;0.83;;;15.80;99.90;;;;;;5034756;28;20455;-80
2021/08/11 04:39:45;;;;;;;1.33;0.70;;;15.80;99.90;;;;;;5033839;28;20799;-79
2021/08/11 04:42:12;;;;;;;2.93;0.70;;;15.80;99.90;;;;;;5034989;28;20485;-80
2021/08/11 04:44:38;;;;;;;0.90;0.60;;;15.80;99.90;;;;;;5034915;28;20493;-80
2021/08/11 04:47:05;;;;;;;1.07;0.53;;;15.80;99.90;;;;;;5035008;28;20462;-80
2021/08/11 04:49:32;;;;;;;0.73;0.73;;;15.80;99.90;;;;;;5034834;28;20447;-84
2021/08/11 04:51:59;;;;;;;1.90;0.83;;;15.80;99.90;;;;;;5034965;28;20467;-84
2021/08/11 04:54:27;;;;;;;0.60;0.60;;;15.90;99.90;;;;;;5035209;28;20454;-83
2021/08/11 04:56:53;;;;;;;1.57;0.90;;;15.90;99.90;;;;;;5035240;28;20435;-85
2021/08/11 04:59:20;;;;;;;1.83;1.13;;;15.90;99.90;;;;;;5035397;28;20458;-85
2021/08/11 05:01:47;;;;;;;2.00;1.23;;;16.00;99.90;;;;;;5035143;28;20822;-86
2021/08/11 05:04:13;;;;;;;2.00;0.80;;;16.00;99.90;;;;;;5034805;28;20478;-86
2021/08/11 05:06:40;;;;;;;1.83;1.00;;;16.00;99.90;;;;;;5035051;28;20450;-85
2021/08/11 05:09:07;;;;;;;1.10;0.70;;;16.10;99.90;;;;;;5035082;28;20450;-85
2021/08/11 05:11:35;;;;;;;0.70;0.70;;;16.10;99.90;;;;;;5034541;28;20462;-84
2021/08/11 05:14:02;;;;;;;0.90;0.37;;;16.10;99.90;;;;;;5034694;28;20442;-84
2021/08/11 05:16:28;;;;;;;0.87;0.77;;;16.20;99.90;;;;;;5034570;28;20426;-84
2021/08/11 05:18:55;;;;;;;1.90;0.97;;;16.20;99.90;;;;;;5034312;28;20453;-84
2021/08/11 05:21:23;;;;;;;0.57;0.57;;;16.30;99.90;;;;;;5034410;28;20470;-84
2021/08/11 05:23:50;;;;;;;0.87;0.83;;;16.30;99.90;;;;;;5034392;28;20483;-84
2021/08/11 05:26:17;;;;;;;0.80;0.80;;;16.40;99.90;;;;;;5034345;28;20442;-84
2021/08/11 05:28:45;;;;;;;1.13;0.60;;;16.40;99.90;;;;;;5034336;28;20461;-84
2021/08/11 05:31:12;;;;;;;0.70;0.60;;;16.40;99.90;;;;;;5036263;28;20477;-84
2021/08/11 05:33:39;;;;;;;1.50;1.10;;;16.40;99.90;;;;;;5034200;28;20447;-84
2021/08/11 05:36:06;;;;;;;0.80;0.70;;;16.50;99.90;;;;;;5033993;28;20795;-84
2021/08/11 05:38:33;;;;;;;1.77;0.60;;;16.50;99.90;;;;;;5033846;28;20493;-84
2021/08/11 05:41:00;;;;;;;1.37;1.03;;;16.50;99.90;;;;;;5033753;28;21001;-84
2021/08/11 05:43:27;;;;;;;1.30;1.17;;;16.60;99.90;;;;;;5033634;28;20506;-84
2021/08/11 05:45:55;;;;;;;1.03;0.93;;;16.70;99.90;;;;;;5033744;28;20922;-83
2021/08/11 05:48:23;;;;;;;1.07;0.97;;;16.70;99.90;;;;;;5034109;28;20451;-83
2021/08/11 05:50:50;;;;;;;0.90;0.90;;;16.80;99.90;;;;;;5033625;28;20454;-84
2021/08/11 05:53:17;;;;;;;1.20;1.10;;;17.00;99.90;;;;;;5033851;28;20458;-83
2021/08/11 05:55:43;;;;;;;1.23;0.77;;;17.10;99.90;;;;;;5034547;28;20451;-84
2021/08/11 05:58:12;;;;;;;2.37;1.20;;;17.20;99.90;;;;;;5034587;28;20831;-84
2021/08/11 06:00:39;;;;;;;2.20;0.90;;;17.20;99.90;;;;;;5033627;28;20450;-83
2021/08/11 06:03:07;;;;;;;1.00;0.90;;;17.30;99.90;;;;;;5033637;28;20792;-83
2021/08/11 06:05:35;;;;;;;2.17;1.20;;;17.30;99.90;;;;;;5033852;28;20443;-83
2021/08/11 06:08:01;;;;;;;1.60;1.00;;;17.40;99.90;;;;;;5033902;28;20454;-84
2021/08/11 06:10:28;;;;;;;1.00;0.80;;;17.50;99.90;;;;;;5033717;28;20454;-79
2021/08/11 06:12:55;;;;;;;0.90;0.90;;;17.60;99.90;;;;;;5033475;28;20477;-79
2021/08/11 06:15:22;;;;;;;2.07;0.80;;;17.70;99.90;;;;;;5033509;28;20446;-79
2021/08/11 06:17:51;;;;;;;1.57;1.07;;;17.90;99.90;;;;;;5033403;28;20446;-79
2021/08/11 06:20:21;;;;;;;1.47;1.10;;;18.00;99.90;;;;;;5033063;28;20973;-79
2021/08/11 06:22:48;;;;;;;0.70;0.70;;;18.10;99.90;;;;;;5033566;28;20470;-79
2021/08/11 06:25:15;;;;;;;1.53;1.27;;;18.20;99.90;;;;;;5032972;28;21009;-79
2021/08/11 06:27:42;;;;;;;1.43;1.00;;;18.30;99.90;;;;;;5033381;28;20465;-79
2021/08/11 06:30:11;;;;;;;6.67;1.10;;;18.40;99.90;;;;;;5033316;28;20447;-79
2021/08/11 06:32:38;;;;;;;0.93;0.90;;;18.40;99.90;;;;;;5033217;28;20481;-79
2021/08/11 06:35:05;;;;;;;3.40;0.97;;;18.50;99.90;;;;;;5033317;28;20520;-79
2021/08/11 06:37:33;;;;;;;0.70;0.70;;;18.60;99.90;;;;;;5032786;28;20439;-80
2021/08/11 06:40:00;;;;;;;3.23;1.40;;;18.60;99.90;;;;;;5033043;28;20431;-79
2021/08/11 06:42:27;;;;;;;2.13;0.80;;;18.80;99.90;;;;;;5033140;28;20466;-80
2021/08/11 06:44:53;;;;;;;1.00;0.90;;;18.80;99.90;;;;;;5033153;28;20478;-80
2021/08/11 06:47:20;;;;;;;1.27;1.17;;;19.00;99.90;;;;;;5033182;28;20446;-80
2021/08/11 06:49:47;;;;;;;1.63;0.90;;;19.10;99.90;;;;;;5033233;28;20427;-80
2021/08/11 06:52:13;;;;;;;1.67;1.10;;;19.20;99.90;;;;;;5032740;28;20461;-80
2021/08/11 06:54:41;;;;;;;0.90;0.90;;;19.40;99.90;;;;;;5032993;28;20446;-80
2021/08/11 06:57:08;;;;;;;0.73;0.70;;;19.50;99.90;;;;;;5032840;28;20906;-80
2021/08/11 06:59:35;;;;;;;7.33;1.20;;;19.60;99.90;;;;;;5033043;28;20438;-80
2021/08/11 07:02:02;;;;;;;0.80;0.80;;;19.70;99.90;;;;;;5033390;28;20463;-80
2021/08/11 07:04:28;;;;;;;1.23;1.13;;;19.80;99.90;;;;;;5036915;28;20469;-80
2021/08/11 07:06:55;;;;;;;1.00;0.90;;;19.80;99.90;;;;;;5036633;28;20435;-80
2021/08/11 07:09:24;;;;;;;0.83;0.80;;;19.80;99.90;;;;;;5036594;28;20895;-80
2021/08/11 07:11:52;;;;;;;0.90;0.90;;;19.90;99.90;;;;;;5036783;28;20473;-80
2021/08/11 07:14:18;;;;;;;1.20;0.97;;;20.00;99.90;;;;;;5036472;28;20809;-80
2021/08/11 07:16:45;;;;;;;2.73;1.03;;;20.10;99.90;;;;;;5036651;28;20450;-80
2021/08/11 07:19:12;;;;;;;2.63;1.30;;;20.20;99.90;;;;;;5036686;28;20794;-80
2021/08/11 07:21:39;;;;;;;1.10;1.00;;;20.40;99.90;;;;;;5036220;28;20466;-80
2021/08/11 07:24:06;;;;;;;1.37;0.77;;;20.60;99.90;;;;;;5036476;28;20489;-80
2021/08/11 07:26:32;;;;;;;2.30;1.13;;;20.80;99.90;;;;;;5036746;28;20446;-80
2021/08/11 07:29:00;;;;;;;1.23;1.00;;;20.90;99.90;;;;;;5036491;28;20450;-80
2021/08/11 07:31:27;;;;;;;0.90;0.90;;;21.00;99.90;;;;;;5036382;28;20470;-80
2021/08/11 07:33:54;;;;;;;0.73;0.70;;;20.90;99.90;;;;;;5036058;28;20450;-80
2021/08/11 07:36:20;;;;;;;1.10;1.00;;;20.70;99.90;;;;;;5036297;28;20449;-80
2021/08/11 07:38:47;;;;;;;2.03;0.90;;;20.60;99.90;;;;;;5035779;28;20481;-81
2021/08/11 07:41:14;;;;;;;1.03;0.93;;;20.50;99.90;;;;;;5036088;28;20518;-80
2021/08/11 07:43:41;;;;;;;1.13;1.03;;;20.70;99.90;;;;;;5037191;28;20441;-81
2021/08/11 07:46:09;;;;;;;1.23;0.90;;;20.80;99.90;;;;;;5035927;28;20449;-81
2021/08/11 07:48:36;;;;;;;1.27;1.17;;;21.10;99.90;;;;;;5036052;28;20453;-80
2021/08/11 07:51:03;;;;;;;0.80;0.70;;;21.30;99.90;;;;;;5035786;28;20785;-81
2021/08/11 07:53:30;;;;;;;1.47;1.00;;;21.50;99.90;;;;;;5036118;28;20446;-81
2021/08/11 07:55:56;;;;;;;0.77;0.77;;;21.70;99.90;;;;;;5035735;28;20442;-81
2021/08/11 07:58:23;;;;;;;1.00;1.00;;;21.70;99.90;;;;;;5035638;28;20453;-81
2021/08/11 08:00:51;;;;;;;2.80;0.80;;;21.80;99.90;;;;;;5035808;28;20446;-81
2021/08/11 08:03:19;;;;;;;1.20;1.00;;;22.00;99.90;;;;;;5035781;28;20449;-81
2021/08/11 08:05:46;;;;;;;1.13;0.83;;;22.20;99.90;;;;;;5035370;28;20231;-81
2021/08/11 08:08:12;;;;;;;1.20;0.80;;;22.30;99.90;;;;;;5035604;28;20445;-81
2021/08/11 08:10:39;;;;;;;0.60;0.60;;;22.40;99.90;;;;;;5036294;28;20207;-81
2021/08/11 08:13:06;;;;;;;0.93;0.83;;;22.50;99.90;;;;;;5035320;28;20200;-81
2021/08/11 08:15:33;;;;;;;3.53;1.00;;;22.60;99.90;;;;;;5035475;28;20207;-81
2021/08/11 08:17:59;;;;;;;1.47;1.10;;;22.70;99.90;;;;;;5035612;28;20204;-81
2021/08/11 08:20:29;;;;;;;1.93;1.17;;;22.80;99.90;;;;;;5036208;28;20207;-81
2021/08/11 08:22:57;;;;;;;0.93;0.80;;;22.90;99.90;;;;;;5035404;28;20238;-82
2021/08/11 08:25:24;;;;;;;3.08;1.17;;;23.00;99.90;;;;;;5035184;28;20207;-82
2021/08/11 08:27:52;;;;;;;1.15;0.90;;;23.20;99.90;;;;;;5035190;28;20188;-82
2021/08/11 08:30:20;;;;;;;0.85;0.68;;;23.30;99.90;;;;;;5035463;28;20303;-82
2021/08/11 08:32:49;;;;;;;0.60;0.60;;;23.40;99.90;;;;;;5035189;28;20661;-83
2021/08/11 08:35:16;;;;;;;1.38;1.27;;;23.50;99.90;;;;;;5035215;28;20214;-83
2021/08/11 08:37:44;;;;;;;0.55;0.55;;;23.70;99.90;;;;;;5034973;28;20326;-83
2021/08/11 08:40:14;;;;;;;0.98;0.88;;;23.60;99.90;;;;;;5035287;28;20190;-82
2021/08/11 08:42:42;;;;;;;2.30;1.15;;;23.60;99.90;;;;;;5034769;28;20314;-83
2021/08/11 08:45:10;;;;;;;0.95;0.95;;;23.70;99.90;;;;;;5035037;28;20268;-83
2021/08/11 08:47:39;;;;;;;1.73;1.30;;;23.70;99.90;;;;;;5035000;28;20188;-83
2021/08/11 08:50:08;;;;;;;2.08;1.20;;;23.70;99.90;;;;;;5034900;28;20192;-83
2021/08/11 08:52:36;;;;;;;1.35;0.90;;;23.80;99.90;;;;;;5034673;28;20303;-83
2021/08/11 08:55:06;;;;;;;0.98;0.80;;;23.90;99.90;;;;;;5034917;28;20191;-83
2021/08/11 08:57:35;;;;;;;0.85;0.82;;;24.00;99.90;;;;;;5034809;28;20203;-82
2021/08/11 09:00:04;;;;;;;1.58;1.20;;;24.20;99.90;;;;;;5035050;28;20213;-83
2021/08/11 09:02:31;;;;;;;1.23;0.98;;;24.40;99.90;;;;;;5034481;28;20302;-83
2021/08/11 09:04:58;;;;;;;1.27;1.00;;;24.50;99.90;;;;;;5034475;28;20227;-84
2021/08/11 09:07:25;;;;;;;1.50;0.95;;;24.70;99.90;;;;;;5035026;28;20203;-83
2021/08/11 09:09:52;;;;;;;0.93;0.90;;;24.70;99.90;;;;;;5034704;28;20221;-83
2021/08/11 09:12:21;;;;;;;1.58;1.30;;;24.90;99.90;;;;;;5034864;28;20247;-84
2021/08/11 09:14:50;;;;;;;1.58;1.02;;;25.10;99.90;;;;;;5035278;28;20231;-84
2021/08/11 09:17:34;;;;;;;1.77;1.13;;;25.20;99.90;;;;;;5034289;28;20295;-84
2021/08/11 09:20:01;;;;;;;0.85;0.80;;;25.30;99.90;;;;;;5034580;28;20269;-84
2021/08/11 09:22:28;;;;;;;1.15;0.77;;;25.40;99.90;;;;;;5034367;28;20270;-84
2021/08/11 09:25:04;;;;;;;0.70;0.70;;;25.40;99.90;;;;;;5033625;28;20703;-83
2021/08/11 09:27:33;;;;;;;1.00;1.00;;;25.40;99.90;;;;;;5034269;28;20199;-84
2021/08/11 09:30:05;;;;;;;0.90;0.75;;;25.40;99.90;;;;;;5034520;28;20211;-83
2021/08/11 09:32:32;;;;;;;0.70;0.70;;;25.50;99.90;;;;;;5034139;28;20235;-83
2021/08/11 09:35:06;;;;;;;1.55;1.00;;;25.60;99.90;;;;;;5034127;28;20195;-84
2021/08/11 09:37:40;;;;;;;1.25;1.10;;;25.60;99.90;;;;;;5034127;28;20211;-84
2021/08/11 09:40:11;;;;;;;1.10;1.00;;;25.70;99.90;;;;;;5033973;28;20214;-83
2021/08/11 09:42:40;;;;;;;2.13;0.70;;;25.70;99.90;;;;;;5034013;28;20230;-83
2021/08/11 09:45:09;;;;;;;1.33;1.02;;;25.70;99.90;;;;;;5033595;28;20711;-83
2021/08/11 09:47:36;;;;;;;1.95;1.08;;;25.70;99.90;;;;;;5034087;28;20213;-83
2021/08/11 09:50:06;;;;;;;0.80;0.80;;;25.70;99.90;;;;;;5033541;28;20643;-83
2021/08/11 09:52:50;;;;;;;0.80;0.80;;;25.80;99.90;;;;;;5033962;28;20235;-85
2021/08/11 09:55:17;;;;;;;0.90;0.90;;;25.80;99.90;;;;;;5034519;28;20538;-84
2021/08/11 09:57:47;;;;;;;1.10;0.73;;;26.00;99.90;;;;;;5033764;28;20192;-83
2021/08/11 10:00:15;;;;;;;0.70;0.60;;;26.00;99.90;;;;;;5033881;28;20200;-83
2021/08/11 10:02:42;;;;;;;0.80;0.70;;;26.00;99.90;;;;;;5033554;28;20239;-83
2021/08/11 10:05:12;;;;;;;1.60;1.05;;;26.20;99.90;;;;;;5033284;28;20678;-83
2021/08/11 10:07:39;;;;;;;1.17;0.80;;;26.30;99.90;;;;;;5033352;28;20184;-83
2021/08/11 10:10:08;;;;;;;0.70;0.70;;;26.40;99.90;;;;;;5033320;28;20588;-83
2021/08/11 10:12:36;;;;;;;1.67;1.02;;;26.60;99.90;;;;;;5033677;28;20235;-83
2021/08/11 10:15:07;;;;;;;1.65;1.00;;;26.70;99.90;;;;;;5033859;28;20198;-83
2021/08/11 10:17:35;;;;;;;1.13;0.77;;;27.10;99.90;;;;;;5033204;28;20647;-82
2021/08/11 10:20:03;;;;;;;1.25;1.15;;;27.40;99.90;;;;;;5033480;28;20565;-82
2021/08/11 10:22:32;;;;;;;1.00;0.75;;;27.50;99.90;;;;;;5033080;28;20656;-83
2021/08/11 10:24:59;;;;;;;1.00;1.00;;;27.50;99.90;;;;;;5033710;28;20223;-83
2021/08/11 10:27:27;;;;;;;5.22;1.25;;;27.60;99.90;;;;;;5033727;28;20203;-82
2021/08/11 10:29:54;;;;;;;3.55;1.00;;;27.60;99.90;;;;;;5033054;28;20189;-82
2021/08/11 10:32:24;;;;;;;0.80;0.80;;;27.50;99.90;;;;;;5033237;28;20227;-81
2021/08/11 10:34:54;;;;;;;1.10;0.98;;;27.80;99.90;;;;;;5033302;28;20204;-82
2021/08/11 10:37:23;;;;;;;1.58;1.20;;;27.90;99.90;;;;;;5033927;28;20260;-84
2021/08/11 10:39:51;;;;;;;0.70;0.70;;;27.90;99.90;;;;;;5037430;28;20200;-82
2021/08/11 10:42:18;;;;;;;3.63;0.90;;;28.00;99.90;;;;;;5037307;28;20233;-82
2021/08/11 10:44:47;;;;;;;1.50;1.35;;;27.90;99.90;;;;;;5037055;28;20184;-82
2021/08/11 10:47:15;;;;;;;2.00;1.10;;;27.70;99.90;;;;;;5037514;28;20251;-82
2021/08/11 10:49:56;;;;;;;1.02;0.93;;;27.70;99.90;;;;;;5037383;28;20211;-82
2021/08/11 10:52:24;;;;;;;0.95;0.95;;;27.90;99.90;;;;;;5037017;28;20228;-82
2021/08/11 10:54:53;;;;;;;0.88;0.85;;;27.90;99.90;;;;;;5037131;28;20203;-82
2021/08/11 10:57:45;;;;;;;1.00;0.82;;;28.10;99.90;;;;;;5036734;28;20661;-82
2021/08/11 11:00:43;;;;;;;1.20;1.10;;;27.90;99.90;;;;;;5036719;28;20655;-82
2021/08/11 11:03:43;;;;;;;1.00;0.88;;;27.50;99.90;;;;;;5036820;28;20214;-81
2021/08/11 11:06:10;;;;;;;1.02;0.93;;;27.10;99.90;;;;;;5036630;28;20215;-82
2021/08/11 11:08:38;;;;;;;1.35;1.02;;;26.70;99.90;;;;;;5036629;28;20188;-81
2021/08/11 11:11:37;;;;;;;0.88;0.85;;;26.40;99.90;;;;;;5036496;28;20733;-81
2021/08/11 11:14:06;;;;;;;1.80;1.00;;;26.30;99.90;;;;;;5036478;28;20675;-81
2021/08/11 11:17:12;;;;;;;1.20;1.10;;;26.40;99.90;;;;;;5036459;28;20203;-82
2021/08/11 11:20:25;;;;;;;3.80;1.33;;;26.50;99.90;;;;;;5036494;28;20664;-81
2021/08/11 11:22:56;;;;;;;2.30;0.90;;;26.60;99.90;;;;;;5036592;28;20223;-81
2021/08/11 11:25:58;;;;;;;0.95;0.73;;;26.30;99.90;;;;;;5036633;28;20199;-81
2021/08/11 11:28:53;;;;;;;1.60;1.50;;;26.10;99.90;;;;;;5036538;28;20293;-81
2021/08/11 11:31:34;;;;;;;1.73;1.13;;;26.20;99.90;;;;;;5036279;28;20231;-81
2021/08/11 11:34:27;;;;;;;1.92;0.93;;;26.40;99.90;;;;;;5036126;28;20225;-81
2021/08/11 11:37:26;;;;;;;1.17;1.05;;;26.70;99.90;;;;;;5036387;28;20307;-81
2021/08/11 11:40:08;;;;;;;3.92;1.10;;;26.90;99.90;;;;;;5035945;28;20191;-81
2021/08/11 11:42:36;;;;;;;4.40;1.00;;;27.20;99.90;;;;;;5035991;28;20223;-82
2021/08/11 11:45:05;;;;;;;1.23;1.00;;;27.40;99.90;;;;;;5036198;28;20278;-80
2021/08/11 11:48:09;;;;;;;0.90;0.90;;;27.40;99.90;;;;;;5035706;28;20747;-82
2021/08/11 11:50:43;;;;;;;1.25;1.13;;;27.50;99.90;;;;;;5035934;28;20187;-80
2021/08/11 11:53:19;;;;;;;0.80;0.80;;;27.40;99.90;;;;;;5035747;28;20679;-80
2021/08/11 11:55:47;;;;;;;1.10;1.00;;;27.40;99.90;;;;;;5036000;28;20214;-80
2021/08/11 11:58:15;;;;;;;1.52;1.23;;;27.40;99.90;;;;;;5035876;28;20286;-80
2021/08/11 12:00:43;;;;;;;1.00;1.00;;;27.30;99.90;;;;;;5035829;28;20202;-81
2021/08/11 12:03:11;;;;;;;0.95;0.90;;;27.30;99.90;;;;;;5035894;28;20629;-80
2021/08/11 12:05:49;;;;;;;1.60;1.48;;;27.40;99.90;;;;;;5035841;28;20198;-81
2021/08/11 12:08:17;;;;;;;1.50;1.02;;;27.30;99.90;;;;;;5035615;28;20194;-80
2021/08/11 12:10:46;;;;;;;1.33;1.23;;;27.20;99.90;;;;;;5035759;28;20216;-81
2021/08/11 12:13:15;;;;;;;1.02;0.90;;;27.20;99.90;;;;;;5035731;28;20192;-80
2021/08/11 12:15:43;;;;;;;1.00;0.90;;;27.20;99.90;;;;;;5035540;28;20208;-80
2021/08/11 12:18:14;;;;;;;1.27;1.05;;;27.30;99.90;;;;;;5035636;28;20231;-80
2021/08/11 12:20:41;;;;;;;4.35;0.90;;;27.30;99.90;;;;;;5035491;28;20192;-80
2021/08/11 12:23:18;;;;;;;0.80;0.80;;;27.30;99.90;;;;;;5035303;28;20192;-80
2021/08/11 12:25:47;;;;;;;1.08;1.08;;;27.30;99.90;;;;;;5035529;28;20195;-80
2021/08/11 12:28:16;;;;;;;1.13;1.02;;;27.30;99.90;;;;;;5036294;28;20196;-80
2021/08/11 12:30:51;;;;;;;0.88;0.88;;;27.10;99.90;;;;;;5034998;28;20674;-80
2021/08/11 12:33:19;;;;;;;2.15;1.52;;;27.10;99.90;;;;;;5035341;28;20202;-80
2021/08/11 12:35:46;;;;;;;1.13;1.05;;;27.00;99.90;;;;;;5035235;28;20221;-80
2021/08/11 12:38:25;;;;;;;0.60;0.60;;;26.90;99.90;;;;;;5034770;28;20231;-79
2021/08/11 12:40:52;;;;;;;1.95;1.02;;;26.70;99.90;;;;;;5035024;28;20215;-82
2021/08/11 12:43:20;;;;;;;0.88;0.88;;;26.50;99.90;;;;;;5034891;28;20567;-81
2021/08/11 12:45:48;;;;;;;1.02;0.93;;;26.60;99.90;;;;;;5034998;28;20210;-81
2021/08/11 12:48:26;;;;;;;1.23;1.17;;;26.50;99.90;;;;;;5034771;28;20217;-81
2021/08/11 12:50:53;;;;;;;1.40;1.00;;;26.50;99.90;;;;;;5034647;28;20567;-80
2021/08/11 12:53:27;;;;;;;0.93;0.88;;;26.30;99.90;;;;;;5034958;28;20211;-80
2021/08/11 12:56:15;;;;;;;1.02;0.90;;;26.30;99.90;;;;;;5034913;28;20222;-80
2021/08/11 12:59:05;;;;;;;1.50;0.98;;;26.20;99.90;;;;;;5035028;28;20238;-80
2021/08/11 13:01:35;;;;;;;0.70;0.70;;;26.10;99.90;;;;;;5033952;28;20227;-80